Here is the Quick Look data you requested

The Data originates at the National Weather Service, and is made available here by the UAlbany Department of Atmospheric and Environmental Sciences

Surface Observations

KACK 171553Z 03012G20KT 10SM CLR 12/02 A3026 RMK AO2 SLP248 T01220022=
KAQW 171552Z AUTO 00000KT 10SM CLR 08/00 A3030 RMK AO2 SLP265 T00830000=
KBAF 171553Z 00000KT 10SM CLR 10/M03 A3030 RMK AO2 SLP264 T01001028=
KBED 171556Z VRB03KT 10SM CLR 11/M03 A3028 RMK AO2 SLP268 T01061028=
KBOS 171554Z 32005KT 10SM FEW040 11/M01 A3029 RMK AO2 SLP255 T01111011=
KBVY 171553Z VRB05KT 10SM CLR 12/00 A3028 RMK AO2 SLP249 T01170000=
KCEF 171556Z 32003KT 10SM CLR 10/M04 A3029 RMK AO2A SLPNO T00991041=
KCQX 171552Z AUTO VRB05G17KT 10SM CLR 12/01 A3027 RMK AO2 SLP251 T01170011=
KEWB 171553Z VRB03KT 10SM CLR 11/00 A3027 RMK AO2 SLP250 T01110000=
KFIT 171552Z AUTO 03006KT 10SM CLR 12/M02 A3029 RMK AO2 SLP260 T01221017=
KFMH 171555Z 36011KT 10SM BKN031 11/03 A3028 RMK AO2 FZRANO=
KHYA 171556Z 34009KT 10SM CLR 12/02 A3025 RMK AO2 SLP246 T01220017=
KLWM 171554Z 10SM CLR 11/M01 A3030 RMK AO2 SLP262 T01111006=
KMQE 171556Z AUTO VRB05KT 10/M02 A3026 RMK AO1 SLP262 T01001022=
KMVY 171553Z 36008G14KT 10SM BKN035 12/03 A3027 RMK AO2 SLP251 T01220028=
KORE 171552Z AUTO 31007KT 10SM CLR 09/M03 A3029 RMK AO2 SLP261 T00891033 TSNO=
KORH 171554Z 00000KT 10SM CLR 08/M04 A3027 RMK AO2 SLP257 T00831039=
KOWD 171553Z 32004KT 10SM CLR 12/M01 A3028 RMK AO2 SLP254 T01221006=
KPSF 171554Z AUTO 31006KT 10SM CLR 08/M02 A3027 RMK AO2 SLP252 T00831017=
KPVC 171556Z AUTO 36006KT 10SM CLR 12/02 A3028 RMK AO2 SLP253 T01170017=
KPYM 171552Z AUTO 33007KT 300V360 10SM CLR 12/01 A3028 RMK AO2 SLP253 T01220006
 $=
KTAN 171552Z AUTO VRB04KT 10SM CLR 12/M01 A3028 RMK AO2 SLP253 T01171011=